createdAt,value
2022-10-01T00:02:22.346Z,99938.84
2022-10-01T00:04:50.859Z,99941.41
2022-10-01T00:07:21.408Z,99938.47
2022-10-01T00:09:49.563Z,99943.69
2022-10-01T00:12:17.729Z,99937.63
2022-10-01T00:14:47.417Z,99944.53
2022-10-01T00:17:15.663Z,99942.75
2022-10-01T00:19:43.850Z,99946.09
2022-10-01T00:22:12.093Z,99946.94
2022-10-01T00:24:41.736Z,99945.16
2022-10-01T00:27:11.333Z,99941.06
2022-10-01T00:29:39.621Z,99933.44
2022-10-01T00:32:10.059Z,99942.03
2022-10-01T00:34:38.230Z,99953.13
2022-10-01T00:37:06.520Z,99949.78
2022-10-01T00:39:34.678Z,99944.44
2022-10-01T00:42:04.843Z,99941.06
2022-10-01T00:44:35.533Z,99944.53
2022-10-01T00:47:11.669Z,99943.69
2022-10-01T00:49:43.863Z,99952.25
2022-10-01T00:52:19.930Z,99949.53
2022-10-01T00:54:52.463Z,99949.75
2022-10-01T00:57:26.585Z,99955.41
2022-10-01T00:59:57.909Z,99954.56
2022-10-01T01:02:26.328Z,99954.16
2022-10-01T01:04:54.563Z,99947.00
2022-10-01T01:07:23.661Z,99944.53
2022-10-01T01:09:53.615Z,99955.50
2022-10-01T01:12:48.420Z,99960.09
2022-10-01T01:15:22.942Z,99952.69
2022-10-01T01:17:59.495Z,99958.97
2022-10-01T01:20:57.148Z,99957.41
2022-10-01T01:23:43.932Z,99964.13
2022-10-01T01:26:24.618Z,99967.47
2022-10-01T01:28:59.097Z,99967.47
2022-10-01T01:31:34.548Z,99977.72
2022-10-01T01:34:12.403Z,99983.59
2022-10-01T01:36:45.773Z,99987.91
2022-10-01T01:39:18.251Z,99973.97
2022-10-01T01:41:51.181Z,99971.13
2022-10-01T01:44:25.733Z,99968.22
2022-10-01T01:46:57.014Z,99974.28
2022-10-01T01:49:25.972Z,99969.88
2022-10-01T01:52:02.626Z,99985.38
2022-10-01T01:54:30.845Z,99996.91
2022-10-01T01:57:00.113Z,99983.59
2022-10-01T01:59:30.235Z,99996.91
2022-10-01T02:01:59.175Z,99992.59
2022-10-01T02:04:32.232Z,99992.50
2022-10-01T02:07:22.329Z,100006.66
2022-10-01T02:09:57.543Z,100005.44
2022-10-01T02:12:39.000Z,100010.81
2022-10-01T02:15:13.228Z,100013.72
2022-10-01T02:17:53.107Z,100010.59
2022-10-01T02:20:30.225Z,100008.50
2022-10-01T02:23:03.752Z,100000.00
2022-10-01T02:25:38.672Z,100009.53
2022-10-01T02:28:11.136Z,100025.13
2022-10-01T02:30:44.411Z,100018.97
2022-10-01T02:33:16.378Z,100015.94
2022-10-01T02:35:47.248Z,100019.72
2022-10-01T02:38:16.999Z,100014.88
2022-10-01T02:40:48.863Z,100018.88
2022-10-01T02:43:20.064Z,100013.72
2022-10-01T02:45:56.623Z,100015.41
2022-10-01T02:48:26.183Z,100018.97
2022-10-01T02:50:58.680Z,100018.25
2022-10-01T02:53:32.745Z,100008.81
2022-10-01T02:56:04.240Z,100016.03
2022-10-01T02:58:31.583Z,100028.50
2022-10-01T03:01:01.232Z,100026.72
2022-10-01T03:03:31.193Z,100019.59
2022-10-01T03:05:59.451Z,100019.69
2022-10-01T03:08:27.677Z,100021.38
2022-10-01T03:10:55.902Z,100013.63
2022-10-01T03:13:24.771Z,100016.13
2022-10-01T03:15:53.091Z,100027.44
2022-10-01T03:18:22.728Z,100021.50
2022-10-01T03:20:50.905Z,100025.75
2022-10-01T03:23:19.356Z,100024.00
2022-10-01T03:25:47.561Z,100030.28
2022-10-01T03:28:16.370Z,100046.06
2022-10-01T03:30:45.437Z,100039.81
2022-10-01T03:33:14.595Z,100040.75
2022-10-01T03:35:44.206Z,100045.75
2022-10-01T03:38:13.857Z,100046.69
2022-10-01T03:40:42.126Z,100052.34
2022-10-01T03:43:10.414Z,100057.38
2022-10-01T03:45:39.513Z,100056.75
2022-10-01T03:48:07.781Z,100062.81
2022-10-01T03:50:36.782Z,100071.38
2022-10-01T03:53:07.247Z,100069.31
2022-10-01T03:55:35.548Z,100075.59
2022-10-01T03:58:03.789Z,100073.00
2022-10-01T04:00:32.020Z,100075.47
2022-10-01T04:03:00.284Z,100083.34
2022-10-01T04:05:28.562Z,100076.31
2022-10-01T04:07:56.709Z,100080.94
2022-10-01T04:10:26.500Z,100081.84
2022-10-01T04:12:55.697Z,100089.63
2022-10-01T04:15:25.111Z,100081.56
2022-10-01T04:17:53.527Z,100086.78
2022-10-01T04:20:22.234Z,100085.88
2022-10-01T04:22:50.418Z,100085.03
2022-10-01T04:25:18.946Z,100088.47
2022-10-01T04:27:58.774Z,100084.19
2022-10-01T04:30:28.612Z,100095.50
2022-10-01T04:32:57.196Z,100100.72
2022-10-01T04:35:25.998Z,100105.03
2022-10-01T04:37:59.202Z,100107.72
2022-10-01T04:40:27.440Z,100112.88
2022-10-01T04:42:57.388Z,100116.31
2022-10-01T04:45:25.662Z,100122.19
2022-10-01T04:47:55.218Z,100128.38
2022-10-01T04:50:25.085Z,100128.47
2022-10-01T04:52:54.033Z,100133.69
2022-10-01T04:55:23.451Z,100139.56
2022-10-01T04:57:51.853Z,100140.31
2022-10-01T05:00:24.553Z,100137.69
2022-10-01T05:02:53.788Z,100147.13
2022-10-01T05:05:25.011Z,100149.84
2022-10-01T05:07:54.199Z,100150.97
2022-10-01T05:10:25.057Z,100156.22
2022-10-01T05:12:53.261Z,100152.66
2022-10-01T05:15:22.922Z,100161.66
2022-10-01T05:17:51.104Z,100176.50
2022-10-01T05:20:21.073Z,100170.34
2022-10-01T05:22:50.198Z,100172.97
2022-10-01T05:25:19.764Z,100181.75
2022-10-01T05:27:48.473Z,100170.56
2022-10-01T05:30:24.350Z,100175.91
2022-10-01T05:32:58.897Z,100187.38
2022-10-01T05:35:27.910Z,100183.19
2022-10-01T05:37:57.708Z,100191.13
2022-10-01T05:40:27.492Z,100191.03
2022-10-01T05:42:56.613Z,100191.25
2022-10-01T05:45:25.065Z,100191.25
2022-10-01T05:48:02.754Z,100191.53
2022-10-01T05:50:33.196Z,100193.22
2022-10-01T05:53:02.131Z,100207.22
2022-10-01T05:55:34.571Z,100212.66
2022-10-01T05:58:05.990Z,100218.00
2022-10-01T06:00:35.988Z,100220.91
2022-10-01T06:03:07.334Z,100222.69
2022-10-01T06:05:37.991Z,100239.59
2022-10-01T06:08:07.325Z,100254.53
2022-10-01T06:10:36.928Z,100258.19
2022-10-01T06:13:06.144Z,100255.69
2022-10-01T06:15:37.771Z,100264.56
2022-10-01T06:18:09.251Z,100268.41
2022-10-01T06:20:37.863Z,100271.47
2022-10-01T06:23:07.532Z,100263.09
2022-10-01T06:25:37.273Z,100277.47
2022-10-01T06:28:07.326Z,100274.19
2022-10-01T06:30:38.239Z,100275.22
2022-10-01T06:33:09.603Z,100274.50
2022-10-01T06:35:42.594Z,100278.94
2022-10-01T06:38:11.591Z,100284.94
2022-10-01T06:40:40.479Z,100299.31
2022-10-01T06:43:10.615Z,100306.88
2022-10-01T06:45:43.017Z,100312.78
2022-10-01T06:48:15.233Z,100308.09
2022-10-01T06:50:45.031Z,100314.25
2022-10-01T06:53:15.957Z,100306.78
2022-10-01T06:55:46.252Z,100314.34
2022-10-01T06:58:16.992Z,100315.81
2022-10-01T07:00:46.089Z,100326.75
2022-10-01T07:03:18.412Z,100327.59
2022-10-01T07:05:47.805Z,100317.38
2022-10-01T07:08:16.312Z,100329.34
2022-10-01T07:10:45.649Z,100332.88
2022-10-01T07:13:16.535Z,100345.34
2022-10-01T07:15:45.066Z,100346.75
2022-10-01T07:18:15.448Z,100351.78
2022-10-01T07:20:43.782Z,100336.09
2022-10-01T07:23:13.342Z,100336.50
2022-10-01T07:25:42.629Z,100337.78
2022-10-01T07:28:16.864Z,100342.50
2022-10-01T07:30:48.693Z,100338.47
2022-10-01T07:33:20.903Z,100341.91
2022-10-01T07:35:49.434Z,100353.78
2022-10-01T07:38:17.614Z,100358.09
2022-10-01T07:40:45.851Z,100353.84
2022-10-01T07:43:14.728Z,100357.69
2022-10-01T07:45:43.141Z,100357.00
2022-10-01T07:48:11.411Z,100362.59
2022-10-01T07:50:40.968Z,100366.03
2022-10-01T07:53:09.212Z,100374.59
2022-10-01T07:55:37.353Z,100381.06
2022-10-01T07:58:06.349Z,100388.94
2022-10-01T08:00:35.735Z,100401.59
2022-10-01T08:03:03.954Z,100404.75
2022-10-01T08:05:33.606Z,100402.13
2022-10-01T08:08:05.136Z,100418.41
2022-10-01T08:10:36.800Z,100427.72
2022-10-01T08:13:08.314Z,100427.41
2022-10-01T08:15:37.087Z,100442.41
2022-10-01T08:18:05.992Z,100439.78
2022-10-01T08:20:34.221Z,100445.22
2022-10-01T08:23:08.703Z,100448.97
2022-10-01T08:25:37.121Z,100441.66
2022-10-01T08:28:06.302Z,100445.44
2022-10-01T08:30:34.840Z,100450.00
2022-10-01T08:33:04.071Z,100445.09
2022-10-01T08:35:32.637Z,100451.16
2022-10-01T08:38:03.085Z,100454.31
2022-10-01T08:40:38.287Z,100455.47
2022-10-01T08:43:08.310Z,100455.81
2022-10-01T08:45:41.816Z,100467.66
2022-10-01T08:48:21.998Z,100459.81
2022-10-01T08:50:56.371Z,100462.25
2022-10-01T08:53:31.491Z,100474.75
2022-10-01T08:56:02.921Z,100461.47
2022-10-01T08:58:44.476Z,100470.78
2022-10-01T09:01:13.512Z,100488.19
2022-10-01T09:03:42.411Z,100488.84
2022-10-01T09:06:21.904Z,100485.50
2022-10-01T09:09:10.715Z,100496.72
2022-10-01T09:11:58.773Z,100506.41
2022-10-01T09:14:38.953Z,100504.84
2022-10-01T09:17:15.171Z,100512.09
2022-10-01T09:20:00.198Z,100514.84
2022-10-01T09:22:38.888Z,100512.63
2022-10-01T09:25:22.929Z,100515.88
2022-10-01T09:27:53.821Z,100523.34
2022-10-01T09:30:25.244Z,100523.75
2022-10-01T09:32:57.417Z,100527.19
2022-10-01T09:35:32.888Z,100532.00
2022-10-01T09:38:04.818Z,100535.84
2022-10-01T09:40:39.821Z,100536.38
2022-10-01T09:43:13.162Z,100537.81
2022-10-01T09:45:42.252Z,100535.47
2022-10-01T09:48:21.363Z,100539.06
2022-10-01T09:50:58.312Z,100549.75
2022-10-01T09:53:35.074Z,100547.72
2022-10-01T09:56:11.579Z,100548.22
2022-10-01T09:58:47.789Z,100545.53
2022-10-01T10:01:25.046Z,100546.22
2022-10-01T10:03:58.355Z,100546.97
2022-10-01T10:06:33.030Z,100554.50
2022-10-01T10:09:02.983Z,100558.72
2022-10-01T10:11:33.117Z,100563.88
2022-10-01T10:14:04.650Z,100574.31
2022-10-01T10:16:36.150Z,100576.66
2022-10-01T10:19:09.736Z,100581.56
2022-10-01T10:21:39.345Z,100587.19
2022-10-01T10:24:23.439Z,100588.34
2022-10-01T10:26:56.093Z,100594.72
2022-10-01T10:29:31.695Z,100592.56
2022-10-01T10:32:00.949Z,100587.50
2022-10-01T10:34:33.911Z,100600.22
2022-10-01T10:37:06.272Z,100603.09
2022-10-01T10:39:36.741Z,100607.72
2022-10-01T10:42:07.430Z,100610.75
2022-10-01T10:44:40.230Z,100615.31
2022-10-01T10:47:12.009Z,100617.81
2022-10-01T10:49:46.439Z,100632.59
2022-10-01T10:52:25.359Z,100631.06
2022-10-01T10:54:54.187Z,100633.16
2022-10-01T10:57:27.907Z,100621.97
2022-10-01T10:59:59.741Z,100617.81
2022-10-01T11:02:30.872Z,100627.94
2022-10-01T11:05:01.598Z,100634.03
2022-10-01T11:07:31.720Z,100643.03
2022-10-01T11:10:28.301Z,100638.94
2022-10-01T11:13:19.672Z,100639.00
2022-10-01T11:16:00.344Z,100641.72
2022-10-01T11:19:01.354Z,100639.44
2022-10-01T11:21:51.577Z,100648.09
2022-10-01T11:24:40.799Z,100663.22
2022-10-01T11:27:17.093Z,100653.16
2022-10-01T11:29:56.216Z,100650.94
2022-10-01T11:32:34.701Z,100658.44
2022-10-01T11:35:16.874Z,100665.41
2022-10-01T11:37:51.372Z,100661.16
2022-10-01T11:40:25.587Z,100666.84
2022-10-01T11:42:59.760Z,100665.06
2022-10-01T11:45:33.139Z,100662.53
2022-10-01T11:48:08.697Z,100667.22
2022-10-01T11:50:41.922Z,100674.84
2022-10-01T11:53:17.000Z,100675.06
2022-10-01T11:56:24.827Z,100681.84
2022-10-01T11:58:57.686Z,100675.09
2022-10-01T12:01:37.068Z,100678.50
2022-10-01T12:04:30.199Z,100694.03
2022-10-01T12:07:04.608Z,100697.03
2022-10-01T12:09:40.852Z,100690.50
2022-10-01T12:12:17.302Z,100694.91
2022-10-01T12:14:51.889Z,100700.00
2022-10-01T12:17:24.895Z,100703.78
2022-10-01T12:19:58.328Z,100700.63
2022-10-01T12:22:31.448Z,100699.13
2022-10-01T12:24:59.632Z,100715.03
2022-10-01T12:27:41.178Z,100719.88
2022-10-01T12:30:12.701Z,100717.91
2022-10-01T12:32:56.878Z,100712.28
2022-10-01T12:35:40.162Z,100716.94
2022-10-01T12:38:18.694Z,100705.50
2022-10-01T12:40:51.053Z,100704.69
2022-10-01T12:43:39.687Z,100700.38
2022-10-01T12:46:24.818Z,100704.44
2022-10-01T12:48:58.034Z,100700.25
2022-10-01T12:51:41.128Z,100701.66
2022-10-01T12:54:26.295Z,100716.06
2022-10-01T12:57:04.205Z,100709.81
2022-10-01T12:59:53.238Z,100714.44
2022-10-01T13:02:39.419Z,100707.13
2022-10-01T13:05:21.388Z,100714.50
2022-10-01T13:08:04.197Z,100712.69
2022-10-01T13:10:53.552Z,100715.78
2022-10-01T13:13:26.758Z,100713.03
2022-10-01T13:16:09.212Z,100730.44
2022-10-01T13:18:52.693Z,100724.41
2022-10-01T13:21:32.378Z,100737.94
2022-10-01T13:24:09.561Z,100737.06
2022-10-01T13:26:48.368Z,100741.63
2022-10-01T13:29:29.244Z,100746.41
2022-10-01T13:31:59.399Z,100742.72
2022-10-01T13:34:36.339Z,100737.69
2022-10-01T13:37:15.604Z,100740.88
2022-10-01T13:39:46.078Z,100742.84
2022-10-01T13:42:27.455Z,100744.44
2022-10-01T13:44:58.055Z,100744.44
2022-10-01T13:47:27.080Z,100745.78
2022-10-01T13:49:59.737Z,100750.00
2022-10-01T13:52:28.537Z,100746.06
2022-10-01T13:55:00.233Z,100741.41
2022-10-01T13:57:35.152Z,100743.91
2022-10-01T14:00:22.619Z,100744.56
2022-10-01T14:03:04.100Z,100741.31
2022-10-01T14:05:37.552Z,100749.19
2022-10-01T14:08:15.457Z,100748.13
2022-10-01T14:11:06.736Z,100743.91
2022-10-01T14:14:04.396Z,100740.22
2022-10-01T14:16:37.694Z,100736.25
2022-10-01T14:19:06.074Z,100741.81
2022-10-01T14:21:51.343Z,100738.31
2022-10-01T14:24:28.515Z,100741.44
2022-10-01T14:27:04.104Z,100743.97
2022-10-01T14:29:47.960Z,100741.91
2022-10-01T14:32:31.630Z,100748.22
2022-10-01T14:35:19.403Z,100741.75
2022-10-01T14:37:48.113Z,100744.75
2022-10-01T14:40:19.280Z,100763.47
2022-10-01T14:43:00.109Z,100767.28
2022-10-01T14:45:28.978Z,100771.59
2022-10-01T14:48:04.891Z,100772.19
2022-10-01T14:50:35.782Z,100774.00
2022-10-01T14:53:04.129Z,100768.34
2022-10-01T14:55:32.764Z,100768.44
2022-10-01T14:58:02.695Z,100771.25
2022-10-01T15:00:33.435Z,100772.34
2022-10-01T15:03:12.720Z,100778.56
2022-10-01T15:05:40.959Z,100778.19
2022-10-01T15:08:14.394Z,100784.50
2022-10-01T15:10:48.774Z,100787.00
2022-10-01T15:13:25.568Z,100793.59
2022-10-01T15:15:55.263Z,100790.34
2022-10-01T15:18:24.179Z,100795.97
2022-10-01T15:20:57.879Z,100794.19
2022-10-01T15:23:27.581Z,100801.31
2022-10-01T15:25:57.821Z,100792.41
2022-10-01T15:28:31.796Z,100789.97
2022-10-01T15:31:03.345Z,100796.09
2022-10-01T15:33:34.013Z,100794.00
2022-10-01T15:36:04.589Z,100794.44
2022-10-01T15:38:33.909Z,100788.25
2022-10-01T15:41:26.858Z,100788.00
2022-10-01T15:43:54.649Z,100783.19
2022-10-01T15:46:33.177Z,100777.72
2022-10-01T15:49:21.724Z,100788.78
2022-10-01T15:52:15.109Z,100780.34
2022-10-01T15:54:45.503Z,100779.59
2022-10-01T15:57:19.727Z,100779.94
2022-10-01T15:59:51.466Z,100776.13
2022-10-01T16:02:22.643Z,100777.53
2022-10-01T16:04:52.875Z,100779.94
2022-10-01T16:07:23.359Z,100777.22
2022-10-01T16:09:58.713Z,100780.50
2022-10-01T16:12:28.989Z,100776.81
2022-10-01T16:15:00.722Z,100793.56
2022-10-01T16:17:36.296Z,100787.34
2022-10-01T16:20:36.718Z,100786.38
2022-10-01T16:23:33.171Z,100795.56
2022-10-01T16:26:01.523Z,100799.13
2022-10-01T16:28:31.940Z,100806.16
2022-10-01T16:31:01.707Z,100804.47
2022-10-01T16:33:29.771Z,100809.13
2022-10-01T16:36:10.489Z,100813.75
2022-10-01T16:38:38.581Z,100811.16
2022-10-01T16:41:06.926Z,100820.94
2022-10-01T16:43:35.055Z,100815.06
2022-10-01T16:46:04.721Z,100818.81
2022-10-01T16:48:32.984Z,100818.47
2022-10-01T16:51:01.069Z,100819.00
2022-10-01T16:53:29.604Z,100818.44
2022-10-01T16:55:58.181Z,100815.72
2022-10-01T16:58:27.765Z,100824.56
2022-10-01T17:00:55.835Z,100820.53
2022-10-01T17:03:26.972Z,100827.13
2022-10-01T17:05:55.104Z,100825.44
2022-10-01T17:08:23.106Z,100822.72
2022-10-01T17:10:57.690Z,100821.69
2022-10-01T17:13:26.742Z,100826.69
2022-10-01T17:15:54.945Z,100825.47
2022-10-01T17:18:23.306Z,100839.00
2022-10-01T17:20:52.781Z,100834.44
2022-10-01T17:23:22.313Z,100835.50
2022-10-01T17:25:50.550Z,100838.66
2022-10-01T17:28:20.991Z,100836.22
2022-10-01T17:30:50.329Z,100833.81
2022-10-01T17:33:20.320Z,100839.06
2022-10-01T17:35:51.998Z,100839.44
2022-10-01T17:38:22.116Z,100838.84
2022-10-01T17:40:54.243Z,100838.69
2022-10-01T17:43:24.865Z,100838.69
2022-10-01T17:45:57.674Z,100838.13
2022-10-01T17:48:26.490Z,100835.13
2022-10-01T17:51:03.513Z,100841.00
2022-10-01T17:53:39.746Z,100842.34
2022-10-01T17:56:13.365Z,100836.81
2022-10-01T17:58:45.203Z,100846.16
2022-10-01T18:01:16.055Z,100836.81
2022-10-01T18:03:44.430Z,100843.16
2022-10-01T18:06:15.325Z,100846.44
2022-10-01T18:08:55.224Z,100845.50
2022-10-01T18:11:25.250Z,100852.34
2022-10-01T18:13:53.591Z,100853.47
2022-10-01T18:16:22.809Z,100854.13
2022-10-01T18:21:44.655Z,100861.63
2022-10-01T18:24:15.346Z,100856.84
2022-10-01T18:26:44.689Z,100855.75
2022-10-01T18:29:18.101Z,100858.91
2022-10-01T18:31:46.878Z,100856.22
2022-10-01T18:34:23.577Z,100860.50
2022-10-01T18:36:56.709Z,100869.41
2022-10-01T18:39:32.798Z,100868.47
2022-10-01T18:42:03.077Z,100870.00
2022-10-01T18:44:31.146Z,100868.69
2022-10-01T18:47:07.198Z,100868.84
2022-10-01T18:50:08.981Z,100878.41
2022-10-01T18:52:48.810Z,100878.31
2022-10-01T18:55:59.941Z,100879.34
2022-10-01T18:58:45.370Z,100879.25
2022-10-01T19:01:24.185Z,100880.03
2022-10-01T19:04:12.264Z,100876.72
2022-10-01T19:06:54.755Z,100874.19
2022-10-01T19:09:32.546Z,100895.44
2022-10-01T19:12:16.276Z,100890.31
2022-10-01T19:15:00.552Z,100895.63
2022-10-01T19:17:45.644Z,100890.38
2022-10-01T19:20:29.725Z,100893.97
2022-10-01T19:23:11.432Z,100901.16
2022-10-01T19:25:44.706Z,100900.25
2022-10-01T19:28:28.516Z,100905.38
2022-10-01T19:31:04.436Z,100912.69
2022-10-01T19:33:37.648Z,100909.97
2022-10-01T19:36:06.867Z,100909.97
2022-10-01T19:38:39.955Z,100912.09
2022-10-01T19:41:15.947Z,100911.00
2022-10-01T19:43:50.615Z,100918.94
2022-10-01T19:46:23.995Z,100924.09
2022-10-01T19:48:58.106Z,100932.06
2022-10-01T19:51:31.857Z,100940.22
2022-10-01T19:54:02.501Z,100926.25
2022-10-01T19:56:33.102Z,100934.00
2022-10-01T19:59:08.527Z,100931.38
2022-10-01T20:01:40.232Z,100940.03
2022-10-01T20:04:15.887Z,100939.84
2022-10-01T20:06:46.925Z,100935.53
2022-10-01T20:09:25.918Z,100940.22
2022-10-01T20:12:00.601Z,100936.06
2022-10-01T20:15:03.936Z,100941.97
2022-10-01T20:17:38.797Z,100949.00
2022-10-01T20:20:18.648Z,100942.91
2022-10-01T20:22:55.357Z,100945.28
2022-10-01T20:25:29.195Z,100941.72
2022-10-01T20:28:08.122Z,100948.06
2022-10-01T20:30:44.940Z,100944.69
2022-10-01T20:33:24.121Z,100947.13
2022-10-01T20:36:02.720Z,100960.41
2022-10-01T20:38:38.028Z,100951.06
2022-10-01T20:41:11.164Z,100954.44
2022-10-01T20:43:44.608Z,100963.16
2022-10-01T20:46:17.250Z,100949.91
2022-10-01T20:48:48.751Z,100948.16
2022-10-01T20:51:23.103Z,100951.56
2022-10-01T20:53:55.264Z,100958.06
2022-10-01T20:56:29.779Z,100958.22
2022-10-01T20:59:05.219Z,100964.00
2022-10-01T21:01:40.983Z,100957.91
2022-10-01T21:04:18.488Z,100968.47
2022-10-01T21:06:49.273Z,100962.97
2022-10-01T21:09:24.979Z,100966.63
2022-10-01T21:12:00.526Z,100959.66
2022-10-01T21:14:34.500Z,100957.72
2022-10-01T21:17:24.537Z,100963.03
2022-10-01T21:20:06.384Z,100962.47
2022-10-01T21:22:49.577Z,100966.63
2022-10-01T21:25:30.054Z,100968.38
2022-10-01T21:28:19.465Z,100970.34
2022-10-01T21:31:00.989Z,100970.16
2022-10-01T21:33:34.589Z,100979.97
2022-10-01T21:36:08.350Z,100973.03
2022-10-01T21:38:45.048Z,100986.22
2022-10-01T21:41:48.401Z,100978.88
2022-10-01T21:44:41.454Z,100976.25
2022-10-01T21:47:19.084Z,100981.34
2022-10-01T21:50:02.670Z,100984.88
2022-10-01T21:52:43.909Z,100994.50
2022-10-01T21:55:36.745Z,100985.91
2022-10-01T21:58:23.803Z,100985.72
2022-10-01T22:01:01.408Z,100986.31
2022-10-01T22:03:36.311Z,100979.13
2022-10-01T22:06:15.015Z,100978.03
2022-10-01T22:08:57.642Z,100987.56
2022-10-01T22:11:31.850Z,100992.00
2022-10-01T22:14:02.638Z,100976.84
2022-10-01T22:16:36.001Z,100989.75
2022-10-01T22:19:11.016Z,100977.56
2022-10-01T22:21:44.654Z,100983.84
2022-10-01T22:24:19.337Z,100980.31
2022-10-01T22:26:54.459Z,100979.13
2022-10-01T22:29:28.794Z,100974.22
2022-10-01T22:32:02.431Z,100980.97
2022-10-01T22:34:36.296Z,100976.66
2022-10-01T22:37:11.769Z,100975.97
2022-10-01T22:39:43.659Z,100984.63
2022-10-01T22:42:16.632Z,100978.28
2022-10-01T22:44:44.809Z,100968.72
2022-10-01T22:47:40.412Z,100976.91
2022-10-01T22:50:21.088Z,100985.44
2022-10-01T22:53:04.283Z,100973.81
2022-10-01T22:55:43.163Z,100973.03
2022-10-01T22:58:26.033Z,100980.31
2022-10-01T23:01:02.637Z,100973.09
2022-10-01T23:03:44.455Z,100984.38
2022-10-01T23:06:21.989Z,100975.59
2022-10-01T23:09:00.003Z,100977.09
2022-10-01T23:11:34.672Z,100985.78
2022-10-01T23:14:09.403Z,100987.06
2022-10-01T23:16:43.914Z,100990.69
2022-10-01T23:19:28.127Z,100986.22
2022-10-01T23:22:04.098Z,100999.19
2022-10-01T23:24:47.262Z,100991.53
2022-10-01T23:27:31.910Z,100984.19
2022-10-01T23:30:12.029Z,100988.53
2022-10-01T23:32:58.110Z,100982.16
2022-10-01T23:35:36.652Z,100986.47
2022-10-01T23:38:19.610Z,100979.53
2022-10-01T23:40:51.836Z,100979.97
2022-10-01T23:43:23.833Z,100978.13
2022-10-01T23:46:00.769Z,100975.50
2022-10-01T23:48:35.065Z,100973.53
2022-10-01T23:51:07.910Z,100966.59
2022-10-01T23:53:41.679Z,100968.53
2022-10-01T23:56:34.559Z,100976.16
2022-10-01T23:59:10.258Z,100968.03
